sensor_id;sensor_type;location;lat;lon;timestamp;temperature;humidity
19039;DHT22;9652;49.014;12.052;2023-11-18T00:00:59;8.00;82.00
19039;DHT22;9652;49.014;12.052;2023-11-18T00:03:27;8.00;82.00
19039;DHT22;9652;49.014;12.052;2023-11-18T00:05:54;8.00;82.00
19039;DHT22;9652;49.014;12.052;2023-11-18T00:08:21;8.10;82.00
19039;DHT22;9652;49.014;12.052;2023-11-18T00:10:48;8.10;81.90
19039;DHT22;9652;49.014;12.052;2023-11-18T00:13:15;8.10;81.80
19039;DHT22;9652;49.014;12.052;2023-11-18T00:15:42;8.10;81.50
19039;DHT22;9652;49.014;12.052;2023-11-18T00:18:11;8.50;81.50
19039;DHT22;9652;49.014;12.052;2023-11-18T00:20:40;8.00;80.70
19039;DHT22;9652;49.014;12.052;2023-11-18T00:23:08;8.00;80.20
19039;DHT22;9652;49.014;12.052;2023-11-18T00:25:35;8.00;79.90
19039;DHT22;9652;49.014;12.052;2023-11-18T00:28:05;7.90;79.70
19039;DHT22;9652;49.014;12.052;2023-11-18T00:30:33;7.90;79.70
19039;DHT22;9652;49.014;12.052;2023-11-18T00:33:00;7.80;79.70
19039;DHT22;9652;49.014;12.052;2023-11-18T00:35:27;7.80;79.80
19039;DHT22;9652;49.014;12.052;2023-11-18T00:37:58;7.80;80.00
19039;DHT22;9652;49.014;12.052;2023-11-18T00:40:26;7.80;80.50
19039;DHT22;9652;49.014;12.052;2023-11-18T00:42:55;7.70;80.80
19039;DHT22;9652;49.014;12.052;2023-11-18T00:45:22;7.80;81.20
19039;DHT22;9652;49.014;12.052;2023-11-18T00:47:50;7.70;81.20
19039;DHT22;9652;49.014;12.052;2023-11-18T00:50:17;7.90;81.60
19039;DHT22;9652;49.014;12.052;2023-11-18T00:52:44;7.80;81.60
19039;DHT22;9652;49.014;12.052;2023-11-18T00:55:15;7.80;81.60
19039;DHT22;9652;49.014;12.052;2023-11-18T00:57:44;7.90;81.70
19039;DHT22;9652;49.014;12.052;2023-11-18T01:00:12;7.90;81.80
19039;DHT22;9652;49.014;12.052;2023-11-18T01:02:41;7.90;81.90
19039;DHT22;9652;49.014;12.052;2023-11-18T01:05:09;8.00;81.90
19039;DHT22;9652;49.014;12.052;2023-11-18T01:07:37;8.00;81.90
19039;DHT22;9652;49.014;12.052;2023-11-18T01:10:04;8.00;81.90
19039;DHT22;9652;49.014;12.052;2023-11-18T01:12:34;8.00;81.90
19039;DHT22;9652;49.014;12.052;2023-11-18T01:15:01;8.10;82.00
19039;DHT22;9652;49.014;12.052;2023-11-18T01:17:29;8.10;82.00
19039;DHT22;9652;49.014;12.052;2023-11-18T01:19:57;8.10;82.00
19039;DHT22;9652;49.014;12.052;2023-11-18T01:22:26;8.10;82.10
19039;DHT22;9652;49.014;12.052;2023-11-18T01:24:55;8.20;82.20
19039;DHT22;9652;49.014;12.052;2023-11-18T01:27:23;8.20;82.00
19039;DHT22;9652;49.014;12.052;2023-11-18T01:29:52;8.20;82.00
19039;DHT22;9652;49.014;12.052;2023-11-18T01:32:19;8.30;81.90
19039;DHT22;9652;49.014;12.052;2023-11-18T01:34:46;8.20;81.60
19039;DHT22;9652;49.014;12.052;2023-11-18T01:37:15;8.30;81.70
19039;DHT22;9652;49.014;12.052;2023-11-18T01:39:43;8.30;81.60
19039;DHT22;9652;49.014;12.052;2023-11-18T01:42:10;8.30;81.50
19039;DHT22;9652;49.014;12.052;2023-11-18T01:44:37;8.30;81.40
19039;DHT22;9652;49.014;12.052;2023-11-18T01:47:07;8.40;81.30
19039;DHT22;9652;49.014;12.052;2023-11-18T01:49:38;8.30;81.30
19039;DHT22;9652;49.014;12.052;2023-11-18T01:52:06;8.30;82.20
19039;DHT22;9652;49.014;12.052;2023-11-18T01:54:35;8.40;81.50
19039;DHT22;9652;49.014;12.052;2023-11-18T01:57:05;8.40;81.50
19039;DHT22;9652;49.014;12.052;2023-11-18T01:59:35;8.40;82.30
19039;DHT22;9652;49.014;12.052;2023-11-18T02:02:05;8.40;81.50
19039;DHT22;9652;49.014;12.052;2023-11-18T02:04:32;8.40;81.40
19039;DHT22;9652;49.014;12.052;2023-11-18T02:07:00;8.40;81.20
19039;DHT22;9652;49.014;12.052;2023-11-18T02:09:30;8.50;81.10
19039;DHT22;9652;49.014;12.052;2023-11-18T02:12:00;8.40;81.00
19039;DHT22;9652;49.014;12.052;2023-11-18T02:14:39;8.40;81.10
19039;DHT22;9652;49.014;12.052;2023-11-18T02:17:09;8.40;81.00
19039;DHT22;9652;49.014;12.052;2023-11-18T02:19:40;8.50;81.20
19039;DHT22;9652;49.014;12.052;2023-11-18T02:22:09;8.40;81.30
19039;DHT22;9652;49.014;12.052;2023-11-18T02:24:37;8.50;81.50
19039;DHT22;9652;49.014;12.052;2023-11-18T02:27:07;8.50;81.60
19039;DHT22;9652;49.014;12.052;2023-11-18T02:29:39;8.50;81.60
19039;DHT22;9652;49.014;12.052;2023-11-18T02:32:13;8.50;81.60
19039;DHT22;9652;49.014;12.052;2023-11-18T02:35:02;8.50;81.50
19039;DHT22;9652;49.014;12.052;2023-11-18T02:37:36;8.60;81.30
19039;DHT22;9652;49.014;12.052;2023-11-18T02:40:09;8.60;81.50
19039;DHT22;9652;49.014;12.052;2023-11-18T02:42:43;8.60;81.40
19039;DHT22;9652;49.014;12.052;2023-11-18T02:45:13;8.60;81.40
19039;DHT22;9652;49.014;12.052;2023-11-18T02:47:43;8.60;81.40
19039;DHT22;9652;49.014;12.052;2023-11-18T02:50:11;8.60;81.30
19039;DHT22;9652;49.014;12.052;2023-11-18T02:52:39;8.60;81.30
19039;DHT22;9652;49.014;12.052;2023-11-18T02:55:07;8.60;81.20
19039;DHT22;9652;49.014;12.052;2023-11-18T02:57:35;8.70;81.10
19039;DHT22;9652;49.014;12.052;2023-11-18T03:00:04;8.60;81.10
19039;DHT22;9652;49.014;12.052;2023-11-18T03:02:37;8.70;82.00
19039;DHT22;9652;49.014;12.052;2023-11-18T03:05:06;8.70;81.10
19039;DHT22;9652;49.014;12.052;2023-11-18T03:07:37;8.70;81.10
19039;DHT22;9652;49.014;12.052;2023-11-18T03:10:05;8.80;81.30
19039;DHT22;9652;49.014;12.052;2023-11-18T03:12:36;8.70;81.30
19039;DHT22;9652;49.014;12.052;2023-11-18T03:15:06;8.70;81.10
19039;DHT22;9652;49.014;12.052;2023-11-18T03:17:35;8.70;81.00
19039;DHT22;9652;49.014;12.052;2023-11-18T03:20:04;8.70;81.10
19039;DHT22;9652;49.014;12.052;2023-11-18T03:22:34;8.70;81.10
19039;DHT22;9652;49.014;12.052;2023-11-18T03:25:01;8.70;81.00
19039;DHT22;9652;49.014;12.052;2023-11-18T03:27:28;8.70;81.10
19039;DHT22;9652;49.014;12.052;2023-11-18T03:29:56;8.70;81.20
19039;DHT22;9652;49.014;12.052;2023-11-18T03:32:24;8.70;81.30
19039;DHT22;9652;49.014;12.052;2023-11-18T03:34:51;8.70;81.30
19039;DHT22;9652;49.014;12.052;2023-11-18T03:37:18;8.70;81.30
19039;DHT22;9652;49.014;12.052;2023-11-18T03:39:48;8.70;81.20
19039;DHT22;9652;49.014;12.052;2023-11-18T03:42:15;8.70;81.10
19039;DHT22;9652;49.014;12.052;2023-11-18T03:44:43;8.70;81.00
19039;DHT22;9652;49.014;12.052;2023-11-18T03:47:13;8.80;80.90
19039;DHT22;9652;49.014;12.052;2023-11-18T03:49:42;8.90;80.80
19039;DHT22;9652;49.014;12.052;2023-11-18T03:52:09;8.70;80.40
19039;DHT22;9652;49.014;12.052;2023-11-18T03:54:36;8.70;80.30
19039;DHT22;9652;49.014;12.052;2023-11-18T03:57:04;8.70;80.30
19039;DHT22;9652;49.014;12.052;2023-11-18T03:59:31;8.70;80.30
19039;DHT22;9652;49.014;12.052;2023-11-18T04:01:58;8.70;80.30
19039;DHT22;9652;49.014;12.052;2023-11-18T04:04:25;8.70;80.40
19039;DHT22;9652;49.014;12.052;2023-11-18T04:06:55;8.70;80.50
19039;DHT22;9652;49.014;12.052;2023-11-18T04:09:22;8.60;80.50
19039;DHT22;9652;49.014;12.052;2023-11-18T04:11:50;8.60;80.60
19039;DHT22;9652;49.014;12.052;2023-11-18T04:14:17;8.60;80.50
19039;DHT22;9652;49.014;12.052;2023-11-18T04:16:45;8.60;80.40
19039;DHT22;9652;49.014;12.052;2023-11-18T04:19:12;8.60;80.30
19039;DHT22;9652;49.014;12.052;2023-11-18T04:21:39;8.60;80.10
19039;DHT22;9652;49.014;12.052;2023-11-18T04:24:08;8.60;80.00
19039;DHT22;9652;49.014;12.052;2023-11-18T04:26:35;8.60;80.00
19039;DHT22;9652;49.014;12.052;2023-11-18T04:29:03;8.60;80.10
19039;DHT22;9652;49.014;12.052;2023-11-18T04:31:30;8.50;80.10
19039;DHT22;9652;49.014;12.052;2023-11-18T04:33:57;8.60;80.30
19039;DHT22;9652;49.014;12.052;2023-11-18T04:36:24;8.50;80.30
19039;DHT22;9652;49.014;12.052;2023-11-18T04:38:52;8.50;80.30
19039;DHT22;9652;49.014;12.052;2023-11-18T04:41:21;8.50;80.40
19039;DHT22;9652;49.014;12.052;2023-11-18T04:43:48;8.60;80.50
19039;DHT22;9652;49.014;12.052;2023-11-18T04:46:16;8.60;80.50
19039;DHT22;9652;49.014;12.052;2023-11-18T04:48:43;8.50;80.50
19039;DHT22;9652;49.014;12.052;2023-11-18T04:51:10;8.60;80.50
19039;DHT22;9652;49.014;12.052;2023-11-18T04:53:38;8.50;80.10
19039;DHT22;9652;49.014;12.052;2023-11-18T04:56:06;8.50;79.60
19039;DHT22;9652;49.014;12.052;2023-11-18T04:58:38;8.50;79.40
19039;DHT22;9652;49.014;12.052;2023-11-18T05:01:05;8.50;79.30
19039;DHT22;9652;49.014;12.052;2023-11-18T05:03:32;8.40;79.40
19039;DHT22;9652;49.014;12.052;2023-11-18T05:05:59;8.40;79.60
19039;DHT22;9652;49.014;12.052;2023-11-18T05:08:26;8.40;79.60
19039;DHT22;9652;49.014;12.052;2023-11-18T05:10:54;8.40;79.80
19039;DHT22;9652;49.014;12.052;2023-11-18T05:13:21;8.30;79.80
19039;DHT22;9652;49.014;12.052;2023-11-18T05:15:49;8.40;79.80
19039;DHT22;9652;49.014;12.052;2023-11-18T05:18:19;8.40;79.90
19039;DHT22;9652;49.014;12.052;2023-11-18T05:20:47;8.30;80.00
19039;DHT22;9652;49.014;12.052;2023-11-18T05:23:14;8.30;80.10
19039;DHT22;9652;49.014;12.052;2023-11-18T05:25:42;8.30;80.00
19039;DHT22;9652;49.014;12.052;2023-11-18T05:28:09;8.30;80.10
19039;DHT22;9652;49.014;12.052;2023-11-18T05:30:37;8.30;80.10
19039;DHT22;9652;49.014;12.052;2023-11-18T05:33:05;8.40;80.30
19039;DHT22;9652;49.014;12.052;2023-11-18T05:35:33;8.30;80.30
19039;DHT22;9652;49.014;12.052;2023-11-18T05:38:00;8.30;80.40
19039;DHT22;9652;49.014;12.052;2023-11-18T05:40:28;8.40;80.50
19039;DHT22;9652;49.014;12.052;2023-11-18T05:42:56;8.30;80.30
19039;DHT22;9652;49.014;12.052;2023-11-18T05:45:24;8.30;80.10
19039;DHT22;9652;49.014;12.052;2023-11-18T05:48:11;8.40;80.10
19039;DHT22;9652;49.014;12.052;2023-11-18T05:50:38;8.40;80.10
19039;DHT22;9652;49.014;12.052;2023-11-18T05:53:05;8.30;80.10
19039;DHT22;9652;49.014;12.052;2023-11-18T05:55:32;8.30;80.10
19039;DHT22;9652;49.014;12.052;2023-11-18T05:57:59;8.40;80.20
19039;DHT22;9652;49.014;12.052;2023-11-18T06:00:27;8.30;80.20
19039;DHT22;9652;49.014;12.052;2023-11-18T06:02:56;8.30;80.10
19039;DHT22;9652;49.014;12.052;2023-11-18T06:05:24;8.40;80.20
19039;DHT22;9652;49.014;12.052;2023-11-18T06:07:51;8.30;80.00
19039;DHT22;9652;49.014;12.052;2023-11-18T06:10:19;8.40;79.90
19039;DHT22;9652;49.014;12.052;2023-11-18T06:12:46;8.30;79.60
19039;DHT22;9652;49.014;12.052;2023-11-18T06:15:13;8.30;79.40
19039;DHT22;9652;49.014;12.052;2023-11-18T06:17:40;8.30;79.10
19039;DHT22;9652;49.014;12.052;2023-11-18T06:20:11;8.30;79.10
19039;DHT22;9652;49.014;12.052;2023-11-18T06:22:41;8.20;78.90
19039;DHT22;9652;49.014;12.052;2023-11-18T06:25:08;8.30;79.10
19039;DHT22;9652;49.014;12.052;2023-11-18T06:27:38;8.20;79.10
19039;DHT22;9652;49.014;12.052;2023-11-18T06:30:06;8.10;79.10
19039;DHT22;9652;49.014;12.052;2023-11-18T06:32:36;8.10;78.90
19039;DHT22;9652;49.014;12.052;2023-11-18T06:35:05;8.10;78.80
19039;DHT22;9652;49.014;12.052;2023-11-18T06:37:33;8.10;78.60
19039;DHT22;9652;49.014;12.052;2023-11-18T06:40:02;8.00;78.30
19039;DHT22;9652;49.014;12.052;2023-11-18T06:42:38;8.00;78.20
19039;DHT22;9652;49.014;12.052;2023-11-18T06:45:06;8.00;78.00
19039;DHT22;9652;49.014;12.052;2023-11-18T06:47:35;7.90;77.70
19039;DHT22;9652;49.014;12.052;2023-11-18T06:50:04;7.80;77.40
19039;DHT22;9652;49.014;12.052;2023-11-18T06:52:32;7.80;77.20
19039;DHT22;9652;49.014;12.052;2023-11-18T06:55:05;7.70;77.10
19039;DHT22;9652;49.014;12.052;2023-11-18T06:57:33;7.70;77.20
19039;DHT22;9652;49.014;12.052;2023-11-18T07:00:00;7.60;77.30
19039;DHT22;9652;49.014;12.052;2023-11-18T07:02:33;7.60;77.30
19039;DHT22;9652;49.014;12.052;2023-11-18T07:05:00;7.50;77.50
19039;DHT22;9652;49.014;12.052;2023-11-18T07:07:27;7.70;77.80
19039;DHT22;9652;49.014;12.052;2023-11-18T07:09:55;7.50;78.20
19039;DHT22;9652;49.014;12.052;2023-11-18T07:12:23;7.40;78.60
19039;DHT22;9652;49.014;12.052;2023-11-18T07:14:50;7.40;79.10
19039;DHT22;9652;49.014;12.052;2023-11-18T07:17:19;7.40;79.70
19039;DHT22;9652;49.014;12.052;2023-11-18T07:19:46;7.50;80.20
19039;DHT22;9652;49.014;12.052;2023-11-18T07:22:13;7.60;80.50
19039;DHT22;9652;49.014;12.052;2023-11-18T07:24:41;7.60;80.70
19039;DHT22;9652;49.014;12.052;2023-11-18T07:27:09;8.10;81.10
19039;DHT22;9652;49.014;12.052;2023-11-18T07:29:38;7.70;80.80
19039;DHT22;9652;49.014;12.052;2023-11-18T07:32:05;7.80;80.70
19039;DHT22;9652;49.014;12.052;2023-11-18T07:34:32;7.80;80.70
19039;DHT22;9652;49.014;12.052;2023-11-18T07:37:01;7.90;80.60
19039;DHT22;9652;49.014;12.052;2023-11-18T07:39:28;8.30;80.60
19039;DHT22;9652;49.014;12.052;2023-11-18T07:42:10;8.00;80.30
19039;DHT22;9652;49.014;12.052;2023-11-18T07:44:39;8.00;80.40
19039;DHT22;9652;49.014;12.052;2023-11-18T07:47:06;8.00;80.40
19039;DHT22;9652;49.014;12.052;2023-11-18T07:49:33;8.10;80.40
19039;DHT22;9652;49.014;12.052;2023-11-18T07:52:01;8.10;80.30
19039;DHT22;9652;49.014;12.052;2023-11-18T07:54:28;8.20;80.40
19039;DHT22;9652;49.014;12.052;2023-11-18T07:56:55;8.20;80.30
19039;DHT22;9652;49.014;12.052;2023-11-18T07:59:22;8.20;80.30
19039;DHT22;9652;49.014;12.052;2023-11-18T08:01:51;8.30;80.30
19039;DHT22;9652;49.014;12.052;2023-11-18T08:04:19;8.30;80.20
19039;DHT22;9652;49.014;12.052;2023-11-18T08:06:47;8.30;80.30
19039;DHT22;9652;49.014;12.052;2023-11-18T08:09:15;8.40;80.40
19039;DHT22;9652;49.014;12.052;2023-11-18T08:11:48;8.40;80.50
19039;DHT22;9652;49.014;12.052;2023-11-18T08:14:15;8.50;80.60
19039;DHT22;9652;49.014;12.052;2023-11-18T08:16:43;8.50;80.70
19039;DHT22;9652;49.014;12.052;2023-11-18T08:19:11;8.60;80.80
19039;DHT22;9652;49.014;12.052;2023-11-18T08:21:38;8.70;80.60
19039;DHT22;9652;49.014;12.052;2023-11-18T08:24:06;8.70;80.50
19039;DHT22;9652;49.014;12.052;2023-11-18T08:26:34;8.70;80.20
19039;DHT22;9652;49.014;12.052;2023-11-18T08:29:01;8.80;80.30
19039;DHT22;9652;49.014;12.052;2023-11-18T08:31:28;8.80;80.20
19039;DHT22;9652;49.014;12.052;2023-11-18T08:33:56;8.90;80.00
19039;DHT22;9652;49.014;12.052;2023-11-18T08:36:25;8.90;79.60
19039;DHT22;9652;49.014;12.052;2023-11-18T08:38:53;8.90;79.20
19039;DHT22;9652;49.014;12.052;2023-11-18T08:41:22;8.90;79.00
19039;DHT22;9652;49.014;12.052;2023-11-18T08:43:49;9.00;79.10
19039;DHT22;9652;49.014;12.052;2023-11-18T08:46:16;9.00;79.20
19039;DHT22;9652;49.014;12.052;2023-11-18T08:48:43;9.00;79.20
19039;DHT22;9652;49.014;12.052;2023-11-18T08:51:11;9.00;79.30
19039;DHT22;9652;49.014;12.052;2023-11-18T08:53:40;8.90;79.30
19039;DHT22;9652;49.014;12.052;2023-11-18T08:56:08;9.10;79.60
19039;DHT22;9652;49.014;12.052;2023-11-18T08:58:41;9.10;79.80
19039;DHT22;9652;49.014;12.052;2023-11-18T09:01:10;9.20;79.90
19039;DHT22;9652;49.014;12.052;2023-11-18T09:03:41;9.20;80.00
19039;DHT22;9652;49.014;12.052;2023-11-18T09:06:14;9.30;80.10
19039;DHT22;9652;49.014;12.052;2023-11-18T09:08:52;9.40;80.10
19039;DHT22;9652;49.014;12.052;2023-11-18T09:11:21;9.50;80.40
19039;DHT22;9652;49.014;12.052;2023-11-18T09:13:51;9.50;80.50
19039;DHT22;9652;49.014;12.052;2023-11-18T09:16:20;9.60;81.60
19039;DHT22;9652;49.014;12.052;2023-11-18T09:18:49;9.70;81.00
19039;DHT22;9652;49.014;12.052;2023-11-18T09:21:16;9.80;80.80
19039;DHT22;9652;49.014;12.052;2023-11-18T09:23:48;9.90;80.60
19039;DHT22;9652;49.014;12.052;2023-11-18T09:26:17;10.00;80.60
19039;DHT22;9652;49.014;12.052;2023-11-18T09:28:44;10.10;80.30
19039;DHT22;9652;49.014;12.052;2023-11-18T09:31:11;10.10;80.10
19039;DHT22;9652;49.014;12.052;2023-11-18T09:33:40;10.20;80.20
19039;DHT22;9652;49.014;12.052;2023-11-18T09:36:12;10.20;80.50
19039;DHT22;9652;49.014;12.052;2023-11-18T09:38:40;10.30;80.70
19039;DHT22;9652;49.014;12.052;2023-11-18T09:41:09;10.40;80.70
19039;DHT22;9652;49.014;12.052;2023-11-18T09:43:41;10.40;80.60
19039;DHT22;9652;49.014;12.052;2023-11-18T09:46:11;10.50;80.40
19039;DHT22;9652;49.014;12.052;2023-11-18T09:48:43;10.60;80.40
19039;DHT22;9652;49.014;12.052;2023-11-18T09:51:22;10.70;80.20
19039;DHT22;9652;49.014;12.052;2023-11-18T09:53:51;10.70;79.60
19039;DHT22;9652;49.014;12.052;2023-11-18T09:56:28;10.80;79.90
19039;DHT22;9652;49.014;12.052;2023-11-18T09:59:11;10.80;79.40
19039;DHT22;9652;49.014;12.052;2023-11-18T10:01:42;10.90;79.40
19039;DHT22;9652;49.014;12.052;2023-11-18T10:04:13;10.90;79.80
19039;DHT22;9652;49.014;12.052;2023-11-18T10:06:44;11.00;79.70
19039;DHT22;9652;49.014;12.052;2023-11-18T10:09:13;11.00;79.70
19039;DHT22;9652;49.014;12.052;2023-11-18T10:11:47;11.10;79.90
19039;DHT22;9652;49.014;12.052;2023-11-18T10:14:16;11.10;79.50
19039;DHT22;9652;49.014;12.052;2023-11-18T10:16:44;11.10;79.60
19039;DHT22;9652;49.014;12.052;2023-11-18T10:19:13;11.20;79.80
19039;DHT22;9652;49.014;12.052;2023-11-18T10:21:43;11.30;79.80
19039;DHT22;9652;49.014;12.052;2023-11-18T10:24:14;11.40;79.90
19039;DHT22;9652;49.014;12.052;2023-11-18T10:26:46;11.30;79.90
19039;DHT22;9652;49.014;12.052;2023-11-18T10:29:26;11.30;79.80
19039;DHT22;9652;49.014;12.052;2023-11-18T10:32:03;11.50;79.50
19039;DHT22;9652;49.014;12.052;2023-11-18T10:34:35;11.50;78.60
19039;DHT22;9652;49.014;12.052;2023-11-18T10:37:03;11.60;78.80
19039;DHT22;9652;49.014;12.052;2023-11-18T10:39:32;11.50;78.00
19039;DHT22;9652;49.014;12.052;2023-11-18T10:42:01;11.60;77.60
19039;DHT22;9652;49.014;12.052;2023-11-18T10:44:29;11.60;77.60
19039;DHT22;9652;49.014;12.052;2023-11-18T10:46:57;11.50;77.40
19039;DHT22;9652;49.014;12.052;2023-11-18T10:49:26;11.50;77.40
19039;DHT22;9652;49.014;12.052;2023-11-18T10:51:55;11.60;77.40
19039;DHT22;9652;49.014;12.052;2023-11-18T10:54:23;11.50;77.60
19039;DHT22;9652;49.014;12.052;2023-11-18T10:56:52;11.50;77.70
19039;DHT22;9652;49.014;12.052;2023-11-18T10:59:22;11.50;77.70
19039;DHT22;9652;49.014;12.052;2023-11-18T11:01:52;11.50;77.70
19039;DHT22;9652;49.014;12.052;2023-11-18T11:04:20;11.50;77.20
19039;DHT22;9652;49.014;12.052;2023-11-18T11:06:49;11.50;77.20
19039;DHT22;9652;49.014;12.052;2023-11-18T11:09:23;11.50;77.50
19039;DHT22;9652;49.014;12.052;2023-11-18T11:11:54;11.50;77.50
19039;DHT22;9652;49.014;12.052;2023-11-18T11:14:26;11.50;77.20
19039;DHT22;9652;49.014;12.052;2023-11-18T11:17:06;11.50;77.20
19039;DHT22;9652;49.014;12.052;2023-11-18T11:19:45;11.50;76.70
19039;DHT22;9652;49.014;12.052;2023-11-18T11:22:24;11.50;76.60
19039;DHT22;9652;49.014;12.052;2023-11-18T11:25:04;11.50;76.60
19039;DHT22;9652;49.014;12.052;2023-11-18T11:27:41;11.50;76.10
19039;DHT22;9652;49.014;12.052;2023-11-18T11:30:22;11.40;75.70
19039;DHT22;9652;49.014;12.052;2023-11-18T11:32:53;11.50;76.40
19039;DHT22;9652;49.014;12.052;2023-11-18T11:35:31;11.40;75.90
19039;DHT22;9652;49.014;12.052;2023-11-18T11:38:01;11.30;76.10
19039;DHT22;9652;49.014;12.052;2023-11-18T11:40:36;11.30;76.40
19039;DHT22;9652;49.014;12.052;2023-11-18T11:43:06;11.40;76.60
19039;DHT22;9652;49.014;12.052;2023-11-18T11:45:37;11.30;76.60
19039;DHT22;9652;49.014;12.052;2023-11-18T11:48:07;11.30;76.70
19039;DHT22;9652;49.014;12.052;2023-11-18T11:51:05;11.30;76.40
19039;DHT22;9652;49.014;12.052;2023-11-18T11:53:49;11.30;76.10
19039;DHT22;9652;49.014;12.052;2023-11-18T11:56:38;11.30;76.20
19039;DHT22;9652;49.014;12.052;2023-11-18T11:59:05;11.20;75.40
19039;DHT22;9652;49.014;12.052;2023-11-18T12:01:37;11.30;76.20
19039;DHT22;9652;49.014;12.052;2023-11-18T12:04:09;11.20;76.20
19039;DHT22;9652;49.014;12.052;2023-11-18T12:06:46;11.30;77.20
19039;DHT22;9652;49.014;12.052;2023-11-18T12:09:19;11.20;76.90
19039;DHT22;9652;49.014;12.052;2023-11-18T12:11:47;11.30;77.40
19039;DHT22;9652;49.014;12.052;2023-11-18T12:14:16;11.30;77.80
19039;DHT22;9652;49.014;12.052;2023-11-18T12:17:07;11.50;77.90
19039;DHT22;9652;49.014;12.052;2023-11-18T12:19:37;11.50;77.90
19039;DHT22;9652;49.014;12.052;2023-11-18T12:22:12;11.50;77.90
19039;DHT22;9652;49.014;12.052;2023-11-18T12:24:45;11.60;78.30
19039;DHT22;9652;49.014;12.052;2023-11-18T12:30:38;11.80;77.00
19039;DHT22;9652;49.014;12.052;2023-11-18T12:33:09;11.90;76.60
19039;DHT22;9652;49.014;12.052;2023-11-18T12:46:19;12.00;75.50
19039;DHT22;9652;49.014;12.052;2023-11-18T12:49:03;12.00;75.00
19039;DHT22;9652;49.014;12.052;2023-11-18T12:51:32;12.00;76.30
19039;DHT22;9652;49.014;12.052;2023-11-18T12:54:02;12.10;76.30
19039;DHT22;9652;49.014;12.052;2023-11-18T12:56:32;12.10;76.50
19039;DHT22;9652;49.014;12.052;2023-11-18T12:59:00;12.00;76.50
19039;DHT22;9652;49.014;12.052;2023-11-18T13:01:32;12.10;76.50
19039;DHT22;9652;49.014;12.052;2023-11-18T13:04:02;12.10;76.50
19039;DHT22;9652;49.014;12.052;2023-11-18T13:06:29;12.20;76.60
19039;DHT22;9652;49.014;12.052;2023-11-18T13:08:58;12.20;76.40
19039;DHT22;9652;49.014;12.052;2023-11-18T13:11:25;12.30;76.30
19039;DHT22;9652;49.014;12.052;2023-11-18T13:13:52;12.20;76.30
19039;DHT22;9652;49.014;12.052;2023-11-18T13:16:20;12.20;76.20
19039;DHT22;9652;49.014;12.052;2023-11-18T13:18:48;12.30;76.30
19039;DHT22;9652;49.014;12.052;2023-11-18T13:21:16;12.30;76.20
19039;DHT22;9652;49.014;12.052;2023-11-18T13:23:46;12.30;76.20
19039;DHT22;9652;49.014;12.052;2023-11-18T13:26:16;12.30;76.00
19039;DHT22;9652;49.014;12.052;2023-11-18T13:28:45;12.30;76.10
19039;DHT22;9652;49.014;12.052;2023-11-18T13:31:13;12.30;76.10
19039;DHT22;9652;49.014;12.052;2023-11-18T13:33:42;12.40;76.30
19039;DHT22;9652;49.014;12.052;2023-11-18T13:36:10;12.40;76.30
19039;DHT22;9652;49.014;12.052;2023-11-18T13:38:38;12.40;76.30
19039;DHT22;9652;49.014;12.052;2023-11-18T13:41:05;12.50;76.20
19039;DHT22;9652;49.014;12.052;2023-11-18T13:43:45;12.50;76.10
19039;DHT22;9652;49.014;12.052;2023-11-18T13:46:13;12.50;75.20
19039;DHT22;9652;49.014;12.052;2023-11-18T13:48:41;12.50;75.80
19039;DHT22;9652;49.014;12.052;2023-11-18T13:51:09;12.60;75.70
19039;DHT22;9652;49.014;12.052;2023-11-18T13:53:39;12.60;75.50
19039;DHT22;9652;49.014;12.052;2023-11-18T13:56:09;12.60;75.50
19039;DHT22;9652;49.014;12.052;2023-11-18T13:58:38;12.50;75.40
19039;DHT22;9652;49.014;12.052;2023-11-18T14:01:08;12.50;75.50
19039;DHT22;9652;49.014;12.052;2023-11-18T14:03:38;12.50;75.20
19039;DHT22;9652;49.014;12.052;2023-11-18T14:06:09;12.50;75.30
19039;DHT22;9652;49.014;12.052;2023-11-18T14:08:38;12.50;75.30
19039;DHT22;9652;49.014;12.052;2023-11-18T14:11:06;12.50;75.30
19039;DHT22;9652;49.014;12.052;2023-11-18T14:13:35;12.50;75.20
19039;DHT22;9652;49.014;12.052;2023-11-18T14:16:03;12.40;75.10
19039;DHT22;9652;49.014;12.052;2023-11-18T14:18:36;12.40;75.20
19039;DHT22;9652;49.014;12.052;2023-11-18T14:21:07;12.40;75.10
19039;DHT22;9652;49.014;12.052;2023-11-18T14:23:34;12.30;75.10
19039;DHT22;9652;49.014;12.052;2023-11-18T14:26:03;12.40;75.30
19039;DHT22;9652;49.014;12.052;2023-11-18T14:28:31;12.30;75.10
19039;DHT22;9652;49.014;12.052;2023-11-18T14:31:00;12.50;75.30
19039;DHT22;9652;49.014;12.052;2023-11-18T14:33:27;12.30;75.20
19039;DHT22;9652;49.014;12.052;2023-11-18T14:35:55;12.30;75.30
19039;DHT22;9652;49.014;12.052;2023-11-18T14:38:23;12.20;75.10
19039;DHT22;9652;49.014;12.052;2023-11-18T14:40:50;12.20;75.00
19039;DHT22;9652;49.014;12.052;2023-11-18T14:43:19;12.20;74.90
19039;DHT22;9652;49.014;12.052;2023-11-18T14:45:46;12.20;74.70
19039;DHT22;9652;49.014;12.052;2023-11-18T14:48:14;12.20;74.40
19039;DHT22;9652;49.014;12.052;2023-11-18T14:50:41;12.10;74.00
19039;DHT22;9652;49.014;12.052;2023-11-18T14:53:10;12.00;73.70
19039;DHT22;9652;49.014;12.052;2023-11-18T14:55:37;11.90;73.60
19039;DHT22;9652;49.014;12.052;2023-11-18T14:58:05;11.90;74.70
19039;DHT22;9652;49.014;12.052;2023-11-18T15:00:32;11.80;74.10
19039;DHT22;9652;49.014;12.052;2023-11-18T15:03:00;11.70;74.50
19039;DHT22;9652;49.014;12.052;2023-11-18T15:05:27;11.60;74.50
19039;DHT22;9652;49.014;12.052;2023-11-18T15:07:55;11.70;74.70
19039;DHT22;9652;49.014;12.052;2023-11-18T15:10:26;11.60;74.80
19039;DHT22;9652;49.014;12.052;2023-11-18T15:12:55;11.60;74.50
19039;DHT22;9652;49.014;12.052;2023-11-18T15:15:24;11.40;74.50
19039;DHT22;9652;49.014;12.052;2023-11-18T15:17:58;11.60;74.50
19039;DHT22;9652;49.014;12.052;2023-11-18T15:20:29;11.40;74.40
19039;DHT22;9652;49.014;12.052;2023-11-18T15:22:57;11.30;74.20
19039;DHT22;9652;49.014;12.052;2023-11-18T15:25:25;11.30;74.20
19039;DHT22;9652;49.014;12.052;2023-11-18T15:27:53;11.20;73.90
19039;DHT22;9652;49.014;12.052;2023-11-18T15:30:21;11.10;73.90
19039;DHT22;9652;49.014;12.052;2023-11-18T15:32:50;11.00;73.90
19039;DHT22;9652;49.014;12.052;2023-11-18T15:35:18;10.90;73.90
19039;DHT22;9652;49.014;12.052;2023-11-18T15:37:47;10.80;73.90
19039;DHT22;9652;49.014;12.052;2023-11-18T15:40:16;10.70;74.00
19039;DHT22;9652;49.014;12.052;2023-11-18T15:42:48;10.70;75.00
19039;DHT22;9652;49.014;12.052;2023-11-18T15:45:16;10.60;74.30
19039;DHT22;9652;49.014;12.052;2023-11-18T15:47:45;10.50;74.40
19039;DHT22;9652;49.014;12.052;2023-11-18T15:50:14;10.50;74.60
19039;DHT22;9652;49.014;12.052;2023-11-18T15:52:42;10.40;74.70
19039;DHT22;9652;49.014;12.052;2023-11-18T15:55:10;10.40;75.00
19039;DHT22;9652;49.014;12.052;2023-11-18T15:57:39;10.40;75.10
19039;DHT22;9652;49.014;12.052;2023-11-18T16:00:10;10.30;75.20
19039;DHT22;9652;49.014;12.052;2023-11-18T16:02:42;10.30;75.40
19039;DHT22;9652;49.014;12.052;2023-11-18T16:05:14;10.30;75.50
19039;DHT22;9652;49.014;12.052;2023-11-18T16:07:43;10.30;75.70